sensor_id;sensor_type;location;lat;lon;timestamp;pressure;altitude;pressure_sealevel;temperature;humidity
72096;BME280;59968;51.084;16.748;2023-04-09T00:00:04;101078.95;;;7.22;73.79
72096;BME280;59968;51.084;16.748;2023-04-09T00:02:59;101073.11;;;7.16;73.95
72096;BME280;59968;51.084;16.748;2023-04-09T00:05:28;101065.80;;;7.10;74.16
72096;BME280;59968;51.084;16.748;2023-04-09T00:07:56;101065.39;;;7.04;74.26
72096;BME280;59968;51.084;16.748;2023-04-09T00:10:25;101067.30;;;6.98;74.55
72096;BME280;59968;51.084;16.748;2023-04-09T00:12:53;101069.20;;;6.93;74.65
72096;BME280;59968;51.084;16.748;2023-04-09T00:15:22;101066.60;;;6.90;74.83
72096;BME280;59968;51.084;16.748;2023-04-09T00:17:58;101070.12;;;6.87;74.89
72096;BME280;59968;51.084;16.748;2023-04-09T00:20:27;101067.70;;;6.86;74.97
72096;BME280;59968;51.084;16.748;2023-04-09T00:22:55;101066.39;;;6.85;74.88
72096;BME280;59968;51.084;16.748;2023-04-09T00:25:25;101067.19;;;6.84;74.99
72096;BME280;59968;51.084;16.748;2023-04-09T00:27:54;101066.35;;;6.84;75.20
72096;BME280;59968;51.084;16.748;2023-04-09T00:30:23;101066.91;;;6.83;75.36
72096;BME280;59968;51.084;16.748;2023-04-09T00:32:52;101068.98;;;6.83;75.33
72096;BME280;59968;51.084;16.748;2023-04-09T00:35:21;101070.13;;;7.61;72.76
72096;BME280;59968;51.084;16.748;2023-04-09T00:37:49;101069.30;;;8.22;70.26
72096;BME280;59968;51.084;16.748;2023-04-09T00:40:18;101070.45;;;8.36;69.64
72096;BME280;59968;51.084;16.748;2023-04-09T00:42:46;101072.66;;;8.43;69.27
72096;BME280;59968;51.084;16.748;2023-04-09T00:45:15;101070.80;;;8.51;69.02
72096;BME280;59968;51.084;16.748;2023-04-09T00:47:43;101067.29;;;8.57;68.73
72096;BME280;59968;51.084;16.748;2023-04-09T00:50:13;101070.31;;;8.63;68.62
72096;BME280;59968;51.084;16.748;2023-04-09T00:52:44;101060.77;;;8.63;68.30
72096;BME280;59968;51.084;16.748;2023-04-09T00:55:12;101069.20;;;8.70;68.13
72096;BME280;59968;51.084;16.748;2023-04-09T00:57:41;101068.22;;;8.71;67.99
72096;BME280;59968;51.084;16.748;2023-04-09T01:00:10;101070.02;;;8.69;67.95
72096;BME280;59968;51.084;16.748;2023-04-09T01:02:40;101064.77;;;8.69;67.98
72096;BME280;59968;51.084;16.748;2023-04-09T01:05:10;101070.77;;;8.70;67.81
72096;BME280;59968;51.084;16.748;2023-04-09T01:10:47;101066.27;;;8.65;67.71
72096;BME280;59968;51.084;16.748;2023-04-09T01:13:29;101070.80;;;8.61;67.82
72096;BME280;59968;51.084;16.748;2023-04-09T01:16:03;101072.48;;;8.60;67.99
72096;BME280;59968;51.084;16.748;2023-04-09T01:18:56;101073.15;;;8.59;67.97
72096;BME280;59968;51.084;16.748;2023-04-09T01:21:31;101070.59;;;8.57;67.86
72096;BME280;59968;51.084;16.748;2023-04-09T01:27:04;101074.39;;;8.56;67.91
72096;BME280;59968;51.084;16.748;2023-04-09T01:29:52;101073.67;;;8.52;67.97
72096;BME280;59968;51.084;16.748;2023-04-09T01:32:22;101076.17;;;8.49;67.94
72096;BME280;59968;51.084;16.748;2023-04-09T01:34:52;101082.25;;;8.49;68.18
72096;BME280;59968;51.084;16.748;2023-04-09T01:37:22;101078.52;;;8.47;68.13
72096;BME280;59968;51.084;16.748;2023-04-09T01:39:52;101078.89;;;8.48;68.14
72096;BME280;59968;51.084;16.748;2023-04-09T01:42:21;101081.23;;;8.48;68.20
72096;BME280;59968;51.084;16.748;2023-04-09T01:44:50;101079.98;;;8.49;68.20
72096;BME280;59968;51.084;16.748;2023-04-09T01:47:20;101083.64;;;8.47;68.09
72096;BME280;59968;51.084;16.748;2023-04-09T01:49:49;101085.80;;;8.46;68.17
72096;BME280;59968;51.084;16.748;2023-04-09T01:52:18;101094.27;;;8.48;68.13
72096;BME280;59968;51.084;16.748;2023-04-09T01:54:46;101100.91;;;8.50;68.22
72096;BME280;59968;51.084;16.748;2023-04-09T01:57:15;101106.98;;;8.53;68.10
72096;BME280;59968;51.084;16.748;2023-04-09T01:59:43;101113.75;;;8.53;68.00
72096;BME280;59968;51.084;16.748;2023-04-09T02:02:17;101122.22;;;8.52;68.06
72096;BME280;59968;51.084;16.748;2023-04-09T02:04:50;101116.20;;;8.51;67.95
72096;BME280;59968;51.084;16.748;2023-04-09T02:07:46;101116.81;;;8.51;68.03
72096;BME280;59968;51.084;16.748;2023-04-09T02:10:18;101110.86;;;8.52;68.12
72096;BME280;59968;51.084;16.748;2023-04-09T02:12:50;101108.91;;;8.56;68.07
72096;BME280;59968;51.084;16.748;2023-04-09T02:15:20;101107.60;;;8.60;67.95
72096;BME280;59968;51.084;16.748;2023-04-09T02:17:49;101113.70;;;8.63;67.92
72096;BME280;59968;51.084;16.748;2023-04-09T02:20:18;101113.23;;;8.62;67.88
72096;BME280;59968;51.084;16.748;2023-04-09T02:22:47;101111.85;;;8.63;67.79
72096;BME280;59968;51.084;16.748;2023-04-09T02:25:15;101115.20;;;8.65;67.79
72096;BME280;59968;51.084;16.748;2023-04-09T02:27:44;101122.83;;;8.67;67.66
72096;BME280;59968;51.084;16.748;2023-04-09T02:30:12;101118.80;;;8.67;67.71
72096;BME280;59968;51.084;16.748;2023-04-09T02:32:41;101125.42;;;8.68;67.72
72096;BME280;59968;51.084;16.748;2023-04-09T02:35:09;101127.39;;;8.69;67.53
72096;BME280;59968;51.084;16.748;2023-04-09T02:37:38;101137.54;;;8.68;67.59
72096;BME280;59968;51.084;16.748;2023-04-09T02:40:07;101136.76;;;8.67;67.61
72096;BME280;59968;51.084;16.748;2023-04-09T02:42:36;101129.26;;;8.66;67.70
72096;BME280;59968;51.084;16.748;2023-04-09T02:45:05;101129.80;;;8.67;67.78
72096;BME280;59968;51.084;16.748;2023-04-09T02:47:33;101134.98;;;8.69;67.75
72096;BME280;59968;51.084;16.748;2023-04-09T02:50:02;101132.42;;;8.70;67.59
72096;BME280;59968;51.084;16.748;2023-04-09T02:52:31;101130.06;;;8.71;67.57
72096;BME280;59968;51.084;16.748;2023-04-09T02:54:59;101130.42;;;8.70;67.61
72096;BME280;59968;51.084;16.748;2023-04-09T02:57:28;101125.70;;;8.67;67.69
72096;BME280;59968;51.084;16.748;2023-04-09T02:59:57;101125.44;;;8.66;67.76
72096;BME280;59968;51.084;16.748;2023-04-09T03:02:26;101127.40;;;8.62;67.83
72096;BME280;59968;51.084;16.748;2023-04-09T03:04:55;101120.09;;;8.56;68.01
72096;BME280;59968;51.084;16.748;2023-04-09T03:07:23;101122.36;;;8.53;68.17
72096;BME280;59968;51.084;16.748;2023-04-09T03:09:52;101125.34;;;8.52;68.20
72096;BME280;59968;51.084;16.748;2023-04-09T03:12:20;101115.35;;;8.50;68.29
72096;BME280;59968;51.084;16.748;2023-04-09T03:14:49;101115.27;;;8.48;68.24
72096;BME280;59968;51.084;16.748;2023-04-09T03:17:17;101113.81;;;8.45;68.36
72096;BME280;59968;51.084;16.748;2023-04-09T03:19:46;101119.48;;;8.40;68.34
72096;BME280;59968;51.084;16.748;2023-04-09T03:22:15;101111.55;;;8.37;68.58
72096;BME280;59968;51.084;16.748;2023-04-09T03:24:44;101106.99;;;8.32;68.56
72096;BME280;59968;51.084;16.748;2023-04-09T03:27:12;101105.45;;;8.27;68.80
72096;BME280;59968;51.084;16.748;2023-04-09T03:29:41;101099.82;;;8.23;68.86
72096;BME280;59968;51.084;16.748;2023-04-09T03:32:09;101101.52;;;8.20;69.01
72096;BME280;59968;51.084;16.748;2023-04-09T03:34:38;101096.08;;;8.16;69.04
72096;BME280;59968;51.084;16.748;2023-04-09T03:37:06;101097.06;;;8.16;69.15
72096;BME280;59968;51.084;16.748;2023-04-09T03:39:35;101095.38;;;8.19;69.18
72096;BME280;59968;51.084;16.748;2023-04-09T03:42:03;101097.34;;;8.24;69.18
72096;BME280;59968;51.084;16.748;2023-04-09T03:44:40;101098.71;;;8.29;69.11
72096;BME280;59968;51.084;16.748;2023-04-09T03:47:12;101095.02;;;8.33;69.05
72096;BME280;59968;51.084;16.748;2023-04-09T03:49:40;101096.23;;;8.37;69.09
72096;BME280;59968;51.084;16.748;2023-04-09T03:52:29;101099.74;;;8.41;69.02
72096;BME280;59968;51.084;16.748;2023-04-09T03:55:04;101100.75;;;8.45;68.94
72096;BME280;59968;51.084;16.748;2023-04-09T03:57:33;101101.12;;;8.48;68.80
72096;BME280;59968;51.084;16.748;2023-04-09T04:00:03;101105.14;;;8.01;70.12
72096;BME280;59968;51.084;16.748;2023-04-09T04:02:50;101108.84;;;7.10;73.64
72096;BME280;59968;51.084;16.748;2023-04-09T04:05:33;101106.90;;;6.93;74.49
72096;BME280;59968;51.084;16.748;2023-04-09T04:08:04;101112.79;;;7.06;74.44
72096;BME280;59968;51.084;16.748;2023-04-09T04:10:33;101114.41;;;8.10;70.68
72096;BME280;59968;51.084;16.748;2023-04-09T04:13:02;101116.07;;;8.26;69.74
72096;BME280;59968;51.084;16.748;2023-04-09T04:15:40;101118.05;;;8.32;69.53
72096;BME280;59968;51.084;16.748;2023-04-09T04:18:13;101114.23;;;8.36;69.34
72096;BME280;59968;51.084;16.748;2023-04-09T04:20:47;101115.85;;;8.39;69.35
72096;BME280;59968;51.084;16.748;2023-04-09T04:23:15;101111.30;;;8.41;69.26
72096;BME280;59968;51.084;16.748;2023-04-09T04:25:55;101111.86;;;8.44;69.28
72096;BME280;59968;51.084;16.748;2023-04-09T04:28:29;101112.06;;;8.43;69.18
72096;BME280;59968;51.084;16.748;2023-04-09T04:30:58;101116.32;;;8.44;69.18
72096;BME280;59968;51.084;16.748;2023-04-09T04:33:28;101108.27;;;8.35;69.16
72096;BME280;59968;51.084;16.748;2023-04-09T04:36:10;101122.54;;;8.37;69.31
72096;BME280;59968;51.084;16.748;2023-04-09T04:38:46;101121.17;;;8.35;69.32
72096;BME280;59968;51.084;16.748;2023-04-09T04:41:27;101121.97;;;8.34;69.49
72096;BME280;59968;51.084;16.748;2023-04-09T04:44:07;101126.12;;;8.37;69.33
72096;BME280;59968;51.084;16.748;2023-04-09T04:46:36;101127.52;;;8.40;69.33
72096;BME280;59968;51.084;16.748;2023-04-09T04:49:05;101130.45;;;8.50;69.28
72096;BME280;59968;51.084;16.748;2023-04-09T04:51:35;101132.10;;;8.59;69.26
72096;BME280;59968;51.084;16.748;2023-04-09T04:54:08;101135.14;;;8.67;69.16
72096;BME280;59968;51.084;16.748;2023-04-09T04:56:37;101135.65;;;8.76;69.12
72096;BME280;59968;51.084;16.748;2023-04-09T04:59:18;101133.89;;;8.84;69.00
72096;BME280;59968;51.084;16.748;2023-04-09T05:01:59;101130.17;;;8.92;68.59
72096;BME280;59968;51.084;16.748;2023-04-09T05:04:32;101130.98;;;8.94;68.30
72096;BME280;59968;51.084;16.748;2023-04-09T05:07:00;101129.91;;;8.94;68.23
72096;BME280;59968;51.084;16.748;2023-04-09T05:09:29;101128.74;;;8.94;68.15
72096;BME280;59968;51.084;16.748;2023-04-09T05:12:05;101127.81;;;8.92;67.91
72096;BME280;59968;51.084;16.748;2023-04-09T05:14:33;101128.98;;;8.84;67.90
72096;BME280;59968;51.084;16.748;2023-04-09T05:17:02;101130.73;;;8.75;68.03
72096;BME280;59968;51.084;16.748;2023-04-09T05:19:40;101133.91;;;8.68;68.35
72096;BME280;59968;51.084;16.748;2023-04-09T05:22:09;101137.48;;;8.63;68.47
72096;BME280;59968;51.084;16.748;2023-04-09T05:24:38;101141.37;;;8.57;68.60
72096;BME280;59968;51.084;16.748;2023-04-09T05:27:06;101149.79;;;8.53;68.91
72096;BME280;59968;51.084;16.748;2023-04-09T05:29:35;101151.48;;;8.49;68.97
72096;BME280;59968;51.084;16.748;2023-04-09T05:32:07;101154.42;;;8.51;69.14
72096;BME280;59968;51.084;16.748;2023-04-09T05:34:38;101151.15;;;8.54;69.21
72096;BME280;59968;51.084;16.748;2023-04-09T05:37:06;101150.88;;;8.59;69.19
72096;BME280;59968;51.084;16.748;2023-04-09T05:39:35;101149.63;;;8.61;69.17
72096;BME280;59968;51.084;16.748;2023-04-09T05:42:03;101147.30;;;8.60;69.07
72096;BME280;59968;51.084;16.748;2023-04-09T05:44:39;101151.45;;;8.60;69.13
72096;BME280;59968;51.084;16.748;2023-04-09T05:47:14;101151.97;;;8.58;69.09
72096;BME280;59968;51.084;16.748;2023-04-09T05:50:03;101157.84;;;8.56;69.35
72096;BME280;59968;51.084;16.748;2023-04-09T05:52:32;101155.95;;;8.54;69.17
72096;BME280;59968;51.084;16.748;2023-04-09T05:55:02;101156.38;;;8.52;69.47
72096;BME280;59968;51.084;16.748;2023-04-09T05:57:40;101159.55;;;8.53;69.65
72096;BME280;59968;51.084;16.748;2023-04-09T06:00:10;101157.81;;;8.57;69.83
72096;BME280;59968;51.084;16.748;2023-04-09T06:02:44;101163.52;;;8.60;69.77
72096;BME280;59968;51.084;16.748;2023-04-09T06:05:14;101160.78;;;8.63;69.72
72096;BME280;59968;51.084;16.748;2023-04-09T06:07:43;101158.86;;;8.65;69.53
72096;BME280;59968;51.084;16.748;2023-04-09T06:10:11;101159.50;;;8.65;69.50
72096;BME280;59968;51.084;16.748;2023-04-09T06:12:40;101163.15;;;8.65;69.46
72096;BME280;59968;51.084;16.748;2023-04-09T06:15:09;101166.72;;;8.66;69.52
72096;BME280;59968;51.084;16.748;2023-04-09T06:17:38;101161.38;;;8.67;69.41
72096;BME280;59968;51.084;16.748;2023-04-09T06:20:07;101159.81;;;8.67;69.36
72096;BME280;59968;51.084;16.748;2023-04-09T06:22:36;101162.14;;;8.68;69.30
72096;BME280;59968;51.084;16.748;2023-04-09T06:25:05;101161.67;;;8.68;69.49
72096;BME280;59968;51.084;16.748;2023-04-09T06:27:34;101162.11;;;8.65;69.67
72096;BME280;59968;51.084;16.748;2023-04-09T06:30:03;101166.45;;;8.66;69.75
72096;BME280;59968;51.084;16.748;2023-04-09T06:32:31;101164.63;;;8.71;70.00
72096;BME280;59968;51.084;16.748;2023-04-09T06:35:10;101162.48;;;8.75;70.04
72096;BME280;59968;51.084;16.748;2023-04-09T06:37:39;101161.65;;;8.78;69.79
72096;BME280;59968;51.084;16.748;2023-04-09T06:40:08;101159.34;;;8.80;69.91
72096;BME280;59968;51.084;16.748;2023-04-09T06:42:37;101157.65;;;8.83;70.05
72096;BME280;59968;51.084;16.748;2023-04-09T06:45:12;101160.81;;;8.87;70.01
72096;BME280;59968;51.084;16.748;2023-04-09T06:47:40;101156.48;;;8.91;70.18
72096;BME280;59968;51.084;16.748;2023-04-09T06:50:09;101153.56;;;8.97;70.24
72096;BME280;59968;51.084;16.748;2023-04-09T06:52:38;101150.55;;;9.00;70.10
72096;BME280;59968;51.084;16.748;2023-04-09T06:55:07;101152.23;;;9.04;70.22
72096;BME280;59968;51.084;16.748;2023-04-09T06:57:36;101153.30;;;9.07;69.87
72096;BME280;59968;51.084;16.748;2023-04-09T07:00:06;101151.28;;;9.06;69.89
72096;BME280;59968;51.084;16.748;2023-04-09T07:02:35;101152.48;;;9.09;70.21
72096;BME280;59968;51.084;16.748;2023-04-09T07:05:05;101158.23;;;9.14;70.20
72096;BME280;59968;51.084;16.748;2023-04-09T07:07:34;101160.08;;;9.18;70.24
72096;BME280;59968;51.084;16.748;2023-04-09T07:10:03;101167.88;;;9.19;70.12
72096;BME280;59968;51.084;16.748;2023-04-09T07:12:33;101167.78;;;9.20;70.22
72096;BME280;59968;51.084;16.748;2023-04-09T07:15:05;101168.27;;;9.22;70.12
72096;BME280;59968;51.084;16.748;2023-04-09T07:17:35;101169.67;;;9.25;70.11
72096;BME280;59968;51.084;16.748;2023-04-09T07:20:04;101170.71;;;9.27;70.24
72096;BME280;59968;51.084;16.748;2023-04-09T07:22:34;101171.23;;;9.30;70.33
72096;BME280;59968;51.084;16.748;2023-04-09T07:25:04;101170.52;;;9.33;70.37
72096;BME280;59968;51.084;16.748;2023-04-09T07:27:34;101172.98;;;9.34;70.18
72096;BME280;59968;51.084;16.748;2023-04-09T07:30:03;101171.20;;;9.32;69.92
72096;BME280;59968;51.084;16.748;2023-04-09T07:32:32;101168.84;;;9.30;69.98
72096;BME280;59968;51.084;16.748;2023-04-09T07:35:02;101167.30;;;9.26;69.98
72096;BME280;59968;51.084;16.748;2023-04-09T07:37:32;101167.38;;;9.24;70.29
72096;BME280;59968;51.084;16.748;2023-04-09T07:40:01;101169.38;;;9.26;70.44
72096;BME280;59968;51.084;16.748;2023-04-09T07:42:31;101160.17;;;9.22;70.56
72096;BME280;59968;51.084;16.748;2023-04-09T07:45:00;101176.58;;;9.30;70.66
72096;BME280;59968;51.084;16.748;2023-04-09T07:47:30;101179.88;;;9.31;70.69
72096;BME280;59968;51.084;16.748;2023-04-09T07:50:00;101183.96;;;9.33;70.62
72096;BME280;59968;51.084;16.748;2023-04-09T07:52:29;101179.77;;;9.39;71.03
72096;BME280;59968;51.084;16.748;2023-04-09T07:54:58;101178.41;;;9.44;70.84
72096;BME280;59968;51.084;16.748;2023-04-09T07:57:30;101179.02;;;9.46;70.85
72096;BME280;59968;51.084;16.748;2023-04-09T07:59:59;101180.11;;;9.49;70.76
72096;BME280;59968;51.084;16.748;2023-04-09T08:02:40;101185.05;;;9.54;70.77
72096;BME280;59968;51.084;16.748;2023-04-09T08:05:09;101187.93;;;9.58;70.38
72096;BME280;59968;51.084;16.748;2023-04-09T08:07:38;101187.52;;;9.59;70.37
72096;BME280;59968;51.084;16.748;2023-04-09T08:10:08;101186.33;;;9.60;70.09
72096;BME280;59968;51.084;16.748;2023-04-09T08:12:42;101182.29;;;9.61;70.02
72096;BME280;59968;51.084;16.748;2023-04-09T08:15:11;101182.28;;;9.62;69.84
72096;BME280;59968;51.084;16.748;2023-04-09T08:17:39;101180.60;;;9.63;70.01
72096;BME280;59968;51.084;16.748;2023-04-09T08:20:09;101180.46;;;9.66;70.23
72096;BME280;59968;51.084;16.748;2023-04-09T08:22:38;101177.99;;;9.73;70.08
72096;BME280;59968;51.084;16.748;2023-04-09T08:25:08;101179.91;;;9.80;70.18
72096;BME280;59968;51.084;16.748;2023-04-09T08:27:37;101178.20;;;9.85;70.24
72096;BME280;59968;51.084;16.748;2023-04-09T08:30:07;101179.34;;;9.88;70.24
72096;BME280;59968;51.084;16.748;2023-04-09T08:32:36;101184.02;;;9.94;69.94
72096;BME280;59968;51.084;16.748;2023-04-09T08:35:06;101188.95;;;9.98;69.69
72096;BME280;59968;51.084;16.748;2023-04-09T08:37:35;101193.77;;;10.00;69.60
72096;BME280;59968;51.084;16.748;2023-04-09T08:40:05;101191.11;;;10.01;69.54
72096;BME280;59968;51.084;16.748;2023-04-09T08:42:35;101193.83;;;10.05;69.41
72096;BME280;59968;51.084;16.748;2023-04-09T08:45:08;101185.41;;;10.04;68.90
72096;BME280;59968;51.084;16.748;2023-04-09T08:47:37;101183.20;;;10.02;68.75
72096;BME280;59968;51.084;16.748;2023-04-09T08:50:08;101176.17;;;10.03;68.95
72096;BME280;59968;51.084;16.748;2023-04-09T08:52:37;101166.66;;;10.10;69.12
72096;BME280;59968;51.084;16.748;2023-04-09T08:55:06;101165.69;;;10.17;69.07
72096;BME280;59968;51.084;16.748;2023-04-09T08:57:39;101163.08;;;10.24;68.88
72096;BME280;59968;51.084;16.748;2023-04-09T09:00:08;101160.73;;;10.31;68.92
72096;BME280;59968;51.084;16.748;2023-04-09T09:02:37;101168.36;;;10.37;68.92
72096;BME280;59968;51.084;16.748;2023-04-09T09:05:07;101180.98;;;10.37;68.65
72096;BME280;59968;51.084;16.748;2023-04-09T09:07:52;101183.08;;;10.33;68.43
72096;BME280;59968;51.084;16.748;2023-04-09T09:10:50;101191.42;;;10.30;68.15
72096;BME280;59968;51.084;16.748;2023-04-09T09:13:21;101192.56;;;10.26;68.53
72096;BME280;59968;51.084;16.748;2023-04-09T09:15:52;101186.83;;;10.29;68.64
72096;BME280;59968;51.084;16.748;2023-04-09T09:18:43;101192.31;;;10.34;68.67
72096;BME280;59968;51.084;16.748;2023-04-09T09:21:13;101191.52;;;10.38;68.71
72096;BME280;59968;51.084;16.748;2023-04-09T09:23:43;101190.23;;;10.41;68.50
72096;BME280;59968;51.084;16.748;2023-04-09T09:28:52;101185.86;;;10.46;68.65
72096;BME280;59968;51.084;16.748;2023-04-09T09:31:22;101190.40;;;10.51;68.56
72096;BME280;59968;51.084;16.748;2023-04-09T09:33:51;101192.04;;;10.54;68.63
72096;BME280;59968;51.084;16.748;2023-04-09T09:36:33;101193.84;;;10.60;68.58
72096;BME280;59968;51.084;16.748;2023-04-09T09:39:02;101192.36;;;10.66;68.62
72096;BME280;59968;51.084;16.748;2023-04-09T09:41:32;101193.27;;;10.67;68.12
72096;BME280;59968;51.084;16.748;2023-04-09T09:44:01;101190.90;;;10.65;67.78
72096;BME280;59968;51.084;16.748;2023-04-09T09:46:39;101194.55;;;10.63;68.01
72096;BME280;59968;51.084;16.748;2023-04-09T09:49:09;101188.45;;;10.58;67.61
72096;BME280;59968;51.084;16.748;2023-04-09T09:51:38;101189.66;;;10.56;67.99
72096;BME280;59968;51.084;16.748;2023-04-09T09:54:09;101186.79;;;10.53;67.94
72096;BME280;59968;51.084;16.748;2023-04-09T09:56:41;101186.95;;;10.52;67.91
72096;BME280;59968;51.084;16.748;2023-04-09T09:59:20;101188.45;;;10.51;68.08
72096;BME280;59968;51.084;16.748;2023-04-09T10:01:56;101184.94;;;10.53;68.18
72096;BME280;59968;51.084;16.748;2023-04-09T10:04:28;101179.80;;;10.57;68.18
72096;BME280;59968;51.084;16.748;2023-04-09T10:06:58;101177.27;;;10.60;68.02
72096;BME280;59968;51.084;16.748;2023-04-09T10:09:29;101176.27;;;10.60;68.03
72096;BME280;59968;51.084;16.748;2023-04-09T10:11:59;101174.27;;;10.63;68.26
72096;BME280;59968;51.084;16.748;2023-04-09T10:14:29;101175.30;;;10.66;67.97
72096;BME280;59968;51.084;16.748;2023-04-09T10:16:58;101172.60;;;10.67;67.65
72096;BME280;59968;51.084;16.748;2023-04-09T10:19:34;101172.69;;;10.70;67.62
72096;BME280;59968;51.084;16.748;2023-04-09T10:22:09;101176.33;;;10.71;67.63
72096;BME280;59968;51.084;16.748;2023-04-09T10:24:39;101177.15;;;10.75;67.90
72096;BME280;59968;51.084;16.748;2023-04-09T10:27:14;101175.35;;;10.77;67.37
72096;BME280;59968;51.084;16.748;2023-04-09T10:29:48;101172.83;;;10.76;67.44
72096;BME280;59968;51.084;16.748;2023-04-09T10:32:21;101168.92;;;10.77;67.60
72096;BME280;59968;51.084;16.748;2023-04-09T10:34:51;101166.69;;;10.79;67.55
72096;BME280;59968;51.084;16.748;2023-04-09T10:37:24;101165.33;;;10.78;67.58
72096;BME280;59968;51.084;16.748;2023-04-09T10:39:54;101161.73;;;10.78;67.74
72096;BME280;59968;51.084;16.748;2023-04-09T10:42:34;101159.39;;;10.76;67.66
72096;BME280;59968;51.084;16.748;2023-04-09T10:45:12;101154.89;;;10.74;67.86
72096;BME280;59968;51.084;16.748;2023-04-09T10:47:42;101153.40;;;10.72;67.80
72096;BME280;59968;51.084;16.748;2023-04-09T10:50:22;101159.46;;;10.71;68.09
72096;BME280;59968;51.084;16.748;2023-04-09T10:52:56;101157.23;;;10.72;68.41
72096;BME280;59968;51.084;16.748;2023-04-09T10:55:35;101158.30;;;10.75;68.40
72096;BME280;59968;51.084;16.748;2023-04-09T10:58:09;101155.48;;;10.75;68.51
72096;BME280;59968;51.084;16.748;2023-04-09T11:00:45;101156.13;;;10.74;68.66
72096;BME280;59968;51.084;16.748;2023-04-09T11:05:54;101156.60;;;10.77;68.98
72096;BME280;59968;51.084;16.748;2023-04-09T11:08:27;101161.61;;;10.74;69.23
72096;BME280;59968;51.084;16.748;2023-04-09T11:10:57;101156.80;;;10.71;69.25
72096;BME280;59968;51.084;16.748;2023-04-09T11:13:30;101163.42;;;10.69;69.45
72096;BME280;59968;51.084;16.748;2023-04-09T11:15:59;101157.73;;;10.69;69.72
72096;BME280;59968;51.084;16.748;2023-04-09T11:18:30;101160.20;;;10.68;69.98
72096;BME280;59968;51.084;16.748;2023-04-09T11:21:02;101167.12;;;10.73;70.11
72096;BME280;59968;51.084;16.748;2023-04-09T11:23:32;101172.73;;;10.80;70.12
72096;BME280;59968;51.084;16.748;2023-04-09T11:26:01;101173.92;;;10.85;70.09
72096;BME280;59968;51.084;16.748;2023-04-09T11:28:30;101169.94;;;10.90;70.10
72096;BME280;59968;51.084;16.748;2023-04-09T11:30:59;101170.13;;;10.92;69.86
72096;BME280;59968;51.084;16.748;2023-04-09T11:33:32;101165.99;;;10.95;69.99
72096;BME280;59968;51.084;16.748;2023-04-09T11:36:03;101164.08;;;11.00;70.16
72096;BME280;59968;51.084;16.748;2023-04-09T11:38:35;101163.06;;;11.06;70.04
72096;BME280;59968;51.084;16.748;2023-04-09T11:41:05;101163.32;;;11.09;70.02
72096;BME280;59968;51.084;16.748;2023-04-09T11:43:35;101160.80;;;11.09;69.95
72096;BME280;59968;51.084;16.748;2023-04-09T11:46:04;101159.02;;;11.10;69.99
72096;BME280;59968;51.084;16.748;2023-04-09T11:48:35;101158.93;;;11.09;70.33
72096;BME280;59968;51.084;16.748;2023-04-09T11:51:04;101155.90;;;11.12;70.38
72096;BME280;59968;51.084;16.748;2023-04-09T11:53:36;101153.98;;;11.13;70.21
72096;BME280;59968;51.084;16.748;2023-04-09T11:56:05;101151.98;;;11.15;70.17
72096;BME280;59968;51.084;16.748;2023-04-09T11:58:34;101152.08;;;11.14;70.23
72096;BME280;59968;51.084;16.748;2023-04-09T12:01:03;101156.59;;;11.16;70.21
72096;BME280;59968;51.084;16.748;2023-04-09T12:03:33;101156.05;;;11.18;70.22
72096;BME280;59968;51.084;16.748;2023-04-09T12:06:03;101153.30;;;11.18;70.12
72096;BME280;59968;51.084;16.748;2023-04-09T12:08:35;101154.27;;;11.20;70.39
72096;BME280;59968;51.084;16.748;2023-04-09T12:13:38;101159.86;;;11.36;70.44
72096;BME280;59968;51.084;16.748;2023-04-09T12:16:11;101160.48;;;11.37;70.21
72096;BME280;59968;51.084;16.748;2023-04-09T12:18:40;101149.38;;;11.30;70.50
72096;BME280;59968;51.084;16.748;2023-04-09T12:21:09;101156.48;;;11.43;70.51
72096;BME280;59968;51.084;16.748;2023-04-09T12:23:37;101154.14;;;11.43;70.58
72096;BME280;59968;51.084;16.748;2023-04-09T12:26:06;101159.62;;;11.47;70.56
72096;BME280;59968;51.084;16.748;2023-04-09T12:28:35;101165.44;;;11.46;70.47
72096;BME280;59968;51.084;16.748;2023-04-09T12:31:03;101164.69;;;11.42;70.46
72096;BME280;59968;51.084;16.748;2023-04-09T12:33:32;101169.02;;;11.35;70.58
72096;BME280;59968;51.084;16.748;2023-04-09T12:36:01;101167.70;;;11.25;70.74
72096;BME280;59968;51.084;16.748;2023-04-09T12:38:30;101160.05;;;11.19;71.10
72096;BME280;59968;51.084;16.748;2023-04-09T12:40:58;101160.96;;;11.17;71.27
72096;BME280;59968;51.084;16.748;2023-04-09T12:43:28;101159.20;;;11.18;71.48
72096;BME280;59968;51.084;16.748;2023-04-09T12:45:58;101158.16;;;11.18;71.48
72096;BME280;59968;51.084;16.748;2023-04-09T12:48:27;101159.08;;;10.16;75.36
72096;BME280;59968;51.084;16.748;2023-04-09T12:50:57;101163.52;;;9.78;77.59
72096;BME280;59968;51.084;16.748;2023-04-09T12:53:26;101164.36;;;9.71;78.20
72096;BME280;59968;51.084;16.748;2023-04-09T12:55:55;101163.23;;;10.25;76.59
72096;BME280;59968;51.084;16.748;2023-04-09T12:58:24;101159.41;;;11.07;73.17
72096;BME280;59968;51.084;16.748;2023-04-09T13:00:54;101156.77;;;11.19;72.53
72096;BME280;59968;51.084;16.748;2023-04-09T13:03:24;101159.50;;;11.24;72.41
72096;BME280;59968;51.084;16.748;2023-04-09T13:05:55;101161.32;;;11.26;72.18
72096;BME280;59968;51.084;16.748;2023-04-09T13:08:24;101161.08;;;11.24;72.18
72096;BME280;59968;51.084;16.748;2023-04-09T13:10:53;101157.35;;;11.25;72.24
72096;BME280;59968;51.084;16.748;2023-04-09T13:13:23;101149.91;;;11.29;72.26
72096;BME280;59968;51.084;16.748;2023-04-09T13:15:53;101146.82;;;11.35;72.36
72096;BME280;59968;51.084;16.748;2023-04-09T13:18:22;101143.94;;;11.42;72.24